createdAt,value
2022-12-06T00:00:49.345Z,6.10
2022-12-06T00:05:56.321Z,6.40
2022-12-06T00:11:09.821Z,7.50
2022-12-06T00:16:16.158Z,5.00
2022-12-06T00:21:25.503Z,6.40
2022-12-06T00:26:30.351Z,3.60
2022-12-06T00:31:35.123Z,7.60
2022-12-06T00:36:41.626Z,4.20
2022-12-06T00:41:48.667Z,4.40
2022-12-06T00:46:53.088Z,3.10
2022-12-06T00:51:57.246Z,2.80
2022-12-06T00:57:00.824Z,3.60
2022-12-06T01:02:04.418Z,2.90
2022-12-06T01:07:09.815Z,3.40
2022-12-06T01:12:15.866Z,4.10
2022-12-06T01:17:24.616Z,1.80
2022-12-06T01:22:28.299Z,4.80
2022-12-06T01:27:32.085Z,5.20
2022-12-06T01:32:35.825Z,6.40
2022-12-06T01:37:44.570Z,4.70
2022-12-06T01:42:51.538Z,3.60
2022-12-06T01:47:55.015Z,4.20
2022-12-06T01:53:13.236Z,5.00
2022-12-06T01:58:21.955Z,4.90
2022-12-06T02:03:29.776Z,4.90
2022-12-06T02:08:34.889Z,3.30
2022-12-06T02:13:41.633Z,5.20
2022-12-06T02:18:57.657Z,4.60
2022-12-06T02:24:25.147Z,6.10
2022-12-06T02:29:51.354Z,3.60
2022-12-06T02:35:01.402Z,4.00
2022-12-06T02:40:11.914Z,5.30
2022-12-06T02:45:19.843Z,4.00
2022-12-06T02:50:37.853Z,6.30
2022-12-06T02:55:45.953Z,5.30
2022-12-06T03:00:58.659Z,4.40
2022-12-06T03:06:06.407Z,7.30
2022-12-06T03:11:11.940Z,5.80
2022-12-06T03:16:31.246Z,3.10
2022-12-06T03:21:46.460Z,3.40
2022-12-06T03:26:51.838Z,6.20
2022-12-06T03:31:55.884Z,3.50
2022-12-06T03:37:00.233Z,3.90
2022-12-06T03:42:05.198Z,4.20
2022-12-06T03:47:21.508Z,2.20
2022-12-06T03:52:25.521Z,2.90
2022-12-06T03:57:28.810Z,2.80
2022-12-06T04:02:34.230Z,4.40
2022-12-06T04:07:37.848Z,3.20
2022-12-06T04:13:02.620Z,1.80
2022-12-06T04:18:17.385Z,5.70
2022-12-06T04:23:23.347Z,3.40
2022-12-06T04:28:46.240Z,3.30
2022-12-06T04:34:09.732Z,5.70
2022-12-06T04:39:19.182Z,4.10
2022-12-06T04:44:24.213Z,2.00
2022-12-06T04:49:28.427Z,2.20
2022-12-06T04:54:32.349Z,3.30
2022-12-06T04:59:35.985Z,3.90
2022-12-06T05:04:41.748Z,5.20
2022-12-06T05:09:45.686Z,5.30
2022-12-06T05:14:49.322Z,3.90
2022-12-06T05:19:52.903Z,3.20
2022-12-06T05:30:02.261Z,3.60
2022-12-06T05:35:07.481Z,5.50
2022-12-06T05:40:15.004Z,3.50
2022-12-06T05:45:20.046Z,5.50
2022-12-06T05:50:23.548Z,4.10
2022-12-06T05:55:28.846Z,6.00
2022-12-06T06:00:32.854Z,4.20
2022-12-06T06:05:38.340Z,3.90
2022-12-06T06:15:53.214Z,3.10
2022-12-06T06:21:00.311Z,2.20
2022-12-06T06:26:16.866Z,4.90
2022-12-06T06:31:31.087Z,3.90
2022-12-06T06:36:45.758Z,3.40
2022-12-06T06:42:12.342Z,3.90
2022-12-06T06:47:37.608Z,1.10
2022-12-06T06:52:44.767Z,1.70
2022-12-06T06:57:48.723Z,2.10
2022-12-06T07:03:01.840Z,0.80
2022-12-06T07:08:06.192Z,0.90
2022-12-06T07:13:09.575Z,1.20
2022-12-06T07:23:16.469Z,0.10
2022-12-06T07:28:20.739Z,1.70
2022-12-06T07:33:24.471Z,0.60
2022-12-06T07:38:29.070Z,1.00
2022-12-06T07:43:51.156Z,1.90
2022-12-06T07:48:54.932Z,0.40
2022-12-06T07:54:00.641Z,1.20
2022-12-06T08:04:08.034Z,0.70
2022-12-06T08:09:11.489Z,0.80
2022-12-06T08:14:16.150Z,0.70
2022-12-06T08:19:19.627Z,1.80
2022-12-06T08:24:25.343Z,1.40
2022-12-06T08:29:28.786Z,0.80
2022-12-06T08:39:39.433Z,0.20
2022-12-06T08:44:45.150Z,1.30
2022-12-06T08:49:50.592Z,1.70
2022-12-06T08:54:54.723Z,0.40
2022-12-06T09:05:01.728Z,1.40
2022-12-06T09:10:08.851Z,0.30
2022-12-06T09:15:12.787Z,0.10
2022-12-06T09:20:18.544Z,0.20
2022-12-06T09:25:22.011Z,0.40
2022-12-06T09:30:25.974Z,0.30
2022-12-06T09:35:30.270Z,1.50
2022-12-06T09:41:08.475Z,0.70
2022-12-06T09:46:34.697Z,1.10
2022-12-06T09:51:44.234Z,0.70
2022-12-06T09:56:51.917Z,1.00
2022-12-06T10:02:11.795Z,0.10
2022-12-06T10:07:23.057Z,0.40
2022-12-06T10:13:06.782Z,1.60
2022-12-06T10:18:31.453Z,1.30
2022-12-06T10:23:38.457Z,1.00
2022-12-06T10:28:57.622Z,0.70
2022-12-06T10:34:29.060Z,1.00
2022-12-06T10:39:52.050Z,1.00
2022-12-06T10:45:34.955Z,0.60
2022-12-06T10:50:39.748Z,1.20
2022-12-06T10:55:46.329Z,1.90
2022-12-06T11:00:59.954Z,1.10
2022-12-06T11:06:27.197Z,1.40
2022-12-06T11:11:36.352Z,0.60
2022-12-06T11:16:56.656Z,0.90
2022-12-06T11:22:16.296Z,0.90
2022-12-06T11:27:24.847Z,1.20
2022-12-06T11:32:28.837Z,1.30
2022-12-06T11:37:34.030Z,0.70
2022-12-06T11:42:37.459Z,0.10
2022-12-06T11:48:00.536Z,0.40
2022-12-06T11:54:35.758Z,0.50
2022-12-06T12:00:31.266Z,0.50
2022-12-06T12:06:32.731Z,0.80
2022-12-06T12:12:15.738Z,0.30
2022-12-06T12:18:00.760Z,0.90
2022-12-06T12:23:45.184Z,0.70
2022-12-06T12:29:34.168Z,0.80
2022-12-06T12:35:14.509Z,0.60
2022-12-06T12:40:56.918Z,1.10
2022-12-06T12:46:35.577Z,0.90
2022-12-06T12:52:15.593Z,0.20
2022-12-06T12:58:02.568Z,0.30
2022-12-06T13:03:56.927Z,0.00
2022-12-06T13:09:57.573Z,0.60
2022-12-06T13:16:12.700Z,0.20
2022-12-06T13:21:40.177Z,0.60
2022-12-06T13:26:53.227Z,1.40
2022-12-06T13:37:02.215Z,0.80
2022-12-06T13:42:32.093Z,0.40
2022-12-06T13:47:40.254Z,1.00
2022-12-06T13:52:48.586Z,0.60
2022-12-06T13:57:56.527Z,0.30
2022-12-06T14:03:08.122Z,1.00
2022-12-06T14:08:14.943Z,1.50
2022-12-06T14:13:20.454Z,0.10
2022-12-06T14:18:27.191Z,1.20
2022-12-06T14:23:41.807Z,0.50
2022-12-06T14:28:48.225Z,0.90
2022-12-06T14:33:52.897Z,0.60
2022-12-06T14:39:04.375Z,1.00
2022-12-06T14:44:16.916Z,1.00
2022-12-06T14:49:42.131Z,1.20
2022-12-06T14:54:45.945Z,1.40
2022-12-06T15:05:42.317Z,1.60
2022-12-06T15:11:12.256Z,1.20
2022-12-06T15:16:27.671Z,0.10
2022-12-06T15:21:37.171Z,0.50
2022-12-06T15:26:40.642Z,0.70
2022-12-06T15:31:49.588Z,1.00
2022-12-06T15:37:30.126Z,0.50
2022-12-06T15:42:24.032Z,0.00
2022-12-06T15:47:28.468Z,0.10
2022-12-06T15:57:36.197Z,0.90
2022-12-06T16:02:51.901Z,0.30
2022-12-06T16:07:58.682Z,0.20
2022-12-06T16:13:35.528Z,0.30
2022-12-06T16:18:40.480Z,0.60
2022-12-06T16:24:14.850Z,0.30
2022-12-06T16:29:25.329Z,1.00
2022-12-06T16:34:29.969Z,0.90
2022-12-06T16:39:36.805Z,1.40
2022-12-06T16:44:51.681Z,1.60
2022-12-06T17:04:36.343Z,0.10
2022-12-06T17:09:41.944Z,1.80
2022-12-06T17:14:46.774Z,1.20
2022-12-06T17:19:50.124Z,1.60
2022-12-06T17:24:53.739Z,0.90
2022-12-06T17:29:57.944Z,0.80
2022-12-06T17:35:02.147Z,0.70
2022-12-06T17:40:08.610Z,1.20
2022-12-06T17:45:19.592Z,1.10
2022-12-06T17:50:28.088Z,0.60
2022-12-06T17:55:46.905Z,1.30
2022-12-06T18:00:59.898Z,1.40
2022-12-06T18:06:10.271Z,1.10
2022-12-06T18:11:18.208Z,0.90
2022-12-06T18:16:35.931Z,1.20
2022-12-06T18:21:43.241Z,0.90
2022-12-06T18:27:17.516Z,0.60
2022-12-06T18:32:26.342Z,0.00
2022-12-06T18:37:40.223Z,0.50
2022-12-06T18:42:58.719Z,0.70
2022-12-06T18:48:22.618Z,0.70
2022-12-06T18:53:38.398Z,0.70
2022-12-06T19:04:17.987Z,0.50
2022-12-06T19:15:52.043Z,0.20
2022-12-06T19:21:18.220Z,0.80
2022-12-06T19:26:29.723Z,1.10
2022-12-06T19:31:43.784Z,0.70
2022-12-06T19:37:06.444Z,0.80
2022-12-06T19:42:29.954Z,0.60
2022-12-06T19:47:39.409Z,0.30
2022-12-06T19:53:13.950Z,0.60
2022-12-06T19:58:21.523Z,1.20
2022-12-06T20:14:27.287Z,0.90
2022-12-06T20:19:50.114Z,1.10
2022-12-06T20:24:55.414Z,0.30
2022-12-06T20:30:00.453Z,1.00
2022-12-06T20:35:44.469Z,1.00
2022-12-06T20:40:53.533Z,0.60
2022-12-06T20:46:11.610Z,1.10
2022-12-06T20:51:29.174Z,0.50
2022-12-06T20:56:39.793Z,0.10
2022-12-06T21:01:52.973Z,1.20
2022-12-06T21:07:02.168Z,1.60
2022-12-06T21:12:13.873Z,1.60
2022-12-06T21:17:18.002Z,0.60
2022-12-06T21:22:29.662Z,1.50
2022-12-06T21:27:52.652Z,0.50
2022-12-06T21:33:06.907Z,0.70
2022-12-06T21:38:10.372Z,0.30
2022-12-06T21:43:13.821Z,0.50
2022-12-06T21:48:22.552Z,0.20
2022-12-06T21:53:26.203Z,0.90
2022-12-06T21:58:29.994Z,0.80
2022-12-06T22:03:35.229Z,1.00
2022-12-06T22:08:45.303Z,1.40
2022-12-06T22:13:49.985Z,1.50
2022-12-06T22:18:55.394Z,0.20
2022-12-06T22:23:59.910Z,0.40
2022-12-06T22:29:04.493Z,1.00
2022-12-06T22:34:08.254Z,1.50
2022-12-06T22:39:12.655Z,0.90
2022-12-06T22:44:24.678Z,1.00
2022-12-06T22:49:35.612Z,0.80
2022-12-06T22:54:41.921Z,0.10
2022-12-06T22:59:45.277Z,0.40
2022-12-06T23:04:53.473Z,0.70
2022-12-06T23:09:57.029Z,0.50
2022-12-06T23:15:03.777Z,0.50
2022-12-06T23:20:08.964Z,0.30
2022-12-06T23:25:15.902Z,1.20
2022-12-06T23:30:22.408Z,0.40
2022-12-06T23:35:27.592Z,1.30
2022-12-06T23:40:33.173Z,0.20
2022-12-06T23:45:37.899Z,0.90
2022-12-06T23:50:41.222Z,0.60
2022-12-06T23:55:47.640Z,1.60
